Terminal Aerodrome Forecast
Issued by NWS Upton, NY

Home | Current Version | Previous Version | Text Only | Print | Product List | Glossary On
Versions: 1 2 3 4 5 6 7 8 9 10 11 12 13 14 15 16 17 18 19 20 21 22 23 24 25 26 27 28
896
FTUS41 KOKX 010530
TAFLGA
TAF
KLGA 010530Z 0106/0206 13005KT P6SM BKN080
     FM011100 11008KT 6SM -SHRA OVC060
     FM011600 10010KT 4SM -RA OVC040
     FM011800 09011KT 2SM -RA BR OVC015
     FM012100 07010KT 2SM -SHRA BR OVC008
     FM020300 06008KT 2SM -SHRADZ BR OVC004=

USA.gov is the U.S. government's official web portal to all federal, state and local government web resources and services.